sensor_id;sensor_type;location;lat;lon;timestamp;P1;durP1;ratioP1;P2;durP2;ratioP2
49123;SDS011;48506;48.202;16.274;2023-06-10T00:02:13;6.30;;;5.65;;
49123;SDS011;48506;48.202;16.274;2023-06-10T00:04:40;6.72;;;5.05;;
49123;SDS011;48506;48.202;16.274;2023-06-10T00:07:07;7.35;;;5.00;;
49123;SDS011;48506;48.202;16.274;2023-06-10T00:09:37;8.75;;;5.03;;
49123;SDS011;48506;48.202;16.274;2023-06-10T00:12:06;6.50;;;4.90;;
49123;SDS011;48506;48.202;16.274;2023-06-10T00:14:36;5.15;;;4.13;;
49123;SDS011;48506;48.202;16.274;2023-06-10T00:17:04;8.23;;;5.25;;
49123;SDS011;48506;48.202;16.274;2023-06-10T00:19:35;8.65;;;5.20;;
49123;SDS011;48506;48.202;16.274;2023-06-10T00:22:04;7.53;;;5.47;;
49123;SDS011;48506;48.202;16.274;2023-06-10T00:24:30;9.45;;;5.57;;
49123;SDS011;48506;48.202;16.274;2023-06-10T00:26:56;8.93;;;6.25;;
49123;SDS011;48506;48.202;16.274;2023-06-10T00:29:22;6.60;;;5.32;;
49123;SDS011;48506;48.202;16.274;2023-06-10T00:31:48;7.60;;;4.95;;
49123;SDS011;48506;48.202;16.274;2023-06-10T00:34:15;11.20;;;5.40;;
49123;SDS011;48506;48.202;16.274;2023-06-10T00:36:41;8.18;;;5.97;;
49123;SDS011;48506;48.202;16.274;2023-06-10T00:39:08;7.63;;;5.50;;
49123;SDS011;48506;48.202;16.274;2023-06-10T00:41:34;6.18;;;5.22;;
49123;SDS011;48506;48.202;16.274;2023-06-10T00:44:00;6.22;;;5.18;;
49123;SDS011;48506;48.202;16.274;2023-06-10T00:46:26;10.20;;;6.75;;
49123;SDS011;48506;48.202;16.274;2023-06-10T00:48:52;7.63;;;6.00;;
49123;SDS011;48506;48.202;16.274;2023-06-10T00:51:18;8.95;;;5.90;;
49123;SDS011;48506;48.202;16.274;2023-06-10T00:53:45;7.50;;;5.72;;
49123;SDS011;48506;48.202;16.274;2023-06-10T00:56:13;9.45;;;5.90;;
49123;SDS011;48506;48.202;16.274;2023-06-10T00:58:39;9.32;;;5.93;;
49123;SDS011;48506;48.202;16.274;2023-06-10T01:01:05;9.57;;;6.22;;
49123;SDS011;48506;48.202;16.274;2023-06-10T01:03:31;8.35;;;6.43;;
49123;SDS011;48506;48.202;16.274;2023-06-10T01:06:19;6.43;;;5.78;;
49123;SDS011;48506;48.202;16.274;2023-06-10T01:08:55;6.55;;;5.28;;
49123;SDS011;48506;48.202;16.274;2023-06-10T01:11:43;9.30;;;6.35;;
49123;SDS011;48506;48.202;16.274;2023-06-10T01:14:12;6.38;;;5.10;;
49123;SDS011;48506;48.202;16.274;2023-06-10T01:16:41;8.18;;;5.90;;
49123;SDS011;48506;48.202;16.274;2023-06-10T01:19:11;8.47;;;6.03;;
49123;SDS011;48506;48.202;16.274;2023-06-10T01:21:38;8.23;;;5.65;;
49123;SDS011;48506;48.202;16.274;2023-06-10T01:24:04;9.73;;;6.00;;
49123;SDS011;48506;48.202;16.274;2023-06-10T01:26:33;6.88;;;5.63;;
49123;SDS011;48506;48.202;16.274;2023-06-10T01:29:03;9.38;;;6.03;;
49123;SDS011;48506;48.202;16.274;2023-06-10T01:33:59;7.30;;;5.63;;
49123;SDS011;48506;48.202;16.274;2023-06-10T01:36:27;9.20;;;6.22;;
49123;SDS011;48506;48.202;16.274;2023-06-10T01:38:54;6.80;;;5.68;;
49123;SDS011;48506;48.202;16.274;2023-06-10T01:41:21;12.35;;;6.00;;
49123;SDS011;48506;48.202;16.274;2023-06-10T01:43:48;6.32;;;4.93;;
49123;SDS011;48506;48.202;16.274;2023-06-10T01:46:15;7.45;;;5.72;;
49123;SDS011;48506;48.202;16.274;2023-06-10T01:48:44;7.70;;;5.82;;
49123;SDS011;48506;48.202;16.274;2023-06-10T01:51:11;6.70;;;5.03;;
49123;SDS011;48506;48.202;16.274;2023-06-10T01:53:37;11.90;;;5.72;;
49123;SDS011;48506;48.202;16.274;2023-06-10T01:56:03;6.22;;;5.55;;
49123;SDS011;48506;48.202;16.274;2023-06-10T01:58:29;6.80;;;6.13;;
49123;SDS011;48506;48.202;16.274;2023-06-10T02:00:55;11.77;;;6.07;;
49123;SDS011;48506;48.202;16.274;2023-06-10T02:03:21;8.43;;;5.78;;
49123;SDS011;48506;48.202;16.274;2023-06-10T02:05:47;8.27;;;5.90;;
49123;SDS011;48506;48.202;16.274;2023-06-10T02:08:15;8.35;;;6.47;;
49123;SDS011;48506;48.202;16.274;2023-06-10T02:10:40;7.47;;;6.40;;
49123;SDS011;48506;48.202;16.274;2023-06-10T02:13:06;7.28;;;6.38;;
49123;SDS011;48506;48.202;16.274;2023-06-10T02:15:32;10.70;;;7.15;;
49123;SDS011;48506;48.202;16.274;2023-06-10T02:17:59;9.00;;;5.88;;
49123;SDS011;48506;48.202;16.274;2023-06-10T02:20:25;9.40;;;6.80;;
49123;SDS011;48506;48.202;16.274;2023-06-10T02:22:52;7.18;;;6.22;;
49123;SDS011;48506;48.202;16.274;2023-06-10T02:25:18;8.88;;;6.88;;
49123;SDS011;48506;48.202;16.274;2023-06-10T02:27:44;9.32;;;6.53;;
49123;SDS011;48506;48.202;16.274;2023-06-10T02:30:10;8.32;;;6.68;;
49123;SDS011;48506;48.202;16.274;2023-06-10T02:32:36;10.10;;;7.05;;
49123;SDS011;48506;48.202;16.274;2023-06-10T02:35:02;7.53;;;6.10;;
49123;SDS011;48506;48.202;16.274;2023-06-10T02:37:28;8.63;;;6.95;;
49123;SDS011;48506;48.202;16.274;2023-06-10T02:39:54;8.82;;;6.13;;
49123;SDS011;48506;48.202;16.274;2023-06-10T02:42:20;11.35;;;8.13;;
49123;SDS011;48506;48.202;16.274;2023-06-10T02:44:46;14.00;;;6.68;;
49123;SDS011;48506;48.202;16.274;2023-06-10T02:47:12;8.35;;;7.03;;
49123;SDS011;48506;48.202;16.274;2023-06-10T02:49:38;9.45;;;6.88;;
49123;SDS011;48506;48.202;16.274;2023-06-10T02:52:05;11.77;;;7.03;;
49123;SDS011;48506;48.202;16.274;2023-06-10T02:54:32;7.68;;;6.20;;
49123;SDS011;48506;48.202;16.274;2023-06-10T02:56:58;11.38;;;7.55;;
49123;SDS011;48506;48.202;16.274;2023-06-10T02:59:23;6.55;;;5.93;;
49123;SDS011;48506;48.202;16.274;2023-06-10T03:01:49;9.18;;;7.13;;
49123;SDS011;48506;48.202;16.274;2023-06-10T03:04:15;11.35;;;7.43;;
49123;SDS011;48506;48.202;16.274;2023-06-10T03:06:41;11.15;;;7.03;;
49123;SDS011;48506;48.202;16.274;2023-06-10T03:09:07;9.77;;;7.90;;
49123;SDS011;48506;48.202;16.274;2023-06-10T03:11:33;10.43;;;7.05;;
49123;SDS011;48506;48.202;16.274;2023-06-10T03:13:59;8.93;;;7.10;;
49123;SDS011;48506;48.202;16.274;2023-06-10T03:16:25;9.60;;;6.40;;
49123;SDS011;48506;48.202;16.274;2023-06-10T03:18:52;9.43;;;7.75;;
49123;SDS011;48506;48.202;16.274;2023-06-10T03:21:19;8.57;;;6.82;;
49123;SDS011;48506;48.202;16.274;2023-06-10T03:23:45;8.88;;;6.85;;
49123;SDS011;48506;48.202;16.274;2023-06-10T03:26:11;8.25;;;6.72;;
49123;SDS011;48506;48.202;16.274;2023-06-10T03:28:40;10.68;;;7.53;;
49123;SDS011;48506;48.202;16.274;2023-06-10T03:31:06;10.32;;;8.25;;
49123;SDS011;48506;48.202;16.274;2023-06-10T03:33:32;10.07;;;7.57;;
49123;SDS011;48506;48.202;16.274;2023-06-10T03:35:59;9.35;;;7.45;;
49123;SDS011;48506;48.202;16.274;2023-06-10T03:38:25;9.90;;;7.38;;
49123;SDS011;48506;48.202;16.274;2023-06-10T03:40:51;9.52;;;7.78;;
49123;SDS011;48506;48.202;16.274;2023-06-10T03:43:17;10.38;;;8.10;;
49123;SDS011;48506;48.202;16.274;2023-06-10T03:45:43;8.38;;;7.45;;
49123;SDS011;48506;48.202;16.274;2023-06-10T03:48:09;8.32;;;6.50;;
49123;SDS011;48506;48.202;16.274;2023-06-10T03:50:36;9.02;;;7.20;;
49123;SDS011;48506;48.202;16.274;2023-06-10T03:53:02;11.80;;;7.65;;
49123;SDS011;48506;48.202;16.274;2023-06-10T03:55:29;8.23;;;7.07;;
49123;SDS011;48506;48.202;16.274;2023-06-10T03:57:57;12.75;;;8.23;;
49123;SDS011;48506;48.202;16.274;2023-06-10T04:00:23;11.82;;;8.60;;
49123;SDS011;48506;48.202;16.274;2023-06-10T04:02:49;9.98;;;8.45;;
49123;SDS011;48506;48.202;16.274;2023-06-10T04:05:16;13.55;;;9.05;;
49123;SDS011;48506;48.202;16.274;2023-06-10T04:07:43;11.07;;;8.75;;
49123;SDS011;48506;48.202;16.274;2023-06-10T04:10:10;9.73;;;7.97;;
49123;SDS011;48506;48.202;16.274;2023-06-10T04:12:37;12.20;;;8.93;;
49123;SDS011;48506;48.202;16.274;2023-06-10T04:15:04;12.77;;;8.93;;
49123;SDS011;48506;48.202;16.274;2023-06-10T04:17:30;15.38;;;9.13;;
49123;SDS011;48506;48.202;16.274;2023-06-10T04:19:57;11.95;;;8.68;;
49123;SDS011;48506;48.202;16.274;2023-06-10T04:22:24;10.35;;;8.50;;
49123;SDS011;48506;48.202;16.274;2023-06-10T04:24:51;14.05;;;8.50;;
49123;SDS011;48506;48.202;16.274;2023-06-10T04:27:17;14.35;;;8.68;;
49123;SDS011;48506;48.202;16.274;2023-06-10T04:29:43;10.85;;;7.80;;
49123;SDS011;48506;48.202;16.274;2023-06-10T04:32:09;10.68;;;8.60;;
49123;SDS011;48506;48.202;16.274;2023-06-10T04:34:36;10.90;;;8.05;;
49123;SDS011;48506;48.202;16.274;2023-06-10T04:37:04;12.07;;;8.55;;
49123;SDS011;48506;48.202;16.274;2023-06-10T04:39:30;10.25;;;7.93;;
49123;SDS011;48506;48.202;16.274;2023-06-10T04:41:57;9.43;;;7.35;;
49123;SDS011;48506;48.202;16.274;2023-06-10T04:44:23;12.73;;;8.32;;
49123;SDS011;48506;48.202;16.274;2023-06-10T04:46:49;12.38;;;8.50;;
49123;SDS011;48506;48.202;16.274;2023-06-10T04:49:14;13.00;;;9.02;;
49123;SDS011;48506;48.202;16.274;2023-06-10T04:51:41;11.65;;;9.18;;
49123;SDS011;48506;48.202;16.274;2023-06-10T04:54:07;10.30;;;8.90;;
49123;SDS011;48506;48.202;16.274;2023-06-10T04:56:33;10.68;;;8.70;;
49123;SDS011;48506;48.202;16.274;2023-06-10T04:58:59;13.50;;;10.18;;
49123;SDS011;48506;48.202;16.274;2023-06-10T05:01:25;12.07;;;9.80;;
49123;SDS011;48506;48.202;16.274;2023-06-10T05:03:52;13.20;;;10.20;;
49123;SDS011;48506;48.202;16.274;2023-06-10T05:06:18;12.18;;;10.82;;
49123;SDS011;48506;48.202;16.274;2023-06-10T05:08:45;12.85;;;10.90;;
49123;SDS011;48506;48.202;16.274;2023-06-10T05:11:11;16.05;;;13.00;;
49123;SDS011;48506;48.202;16.274;2023-06-10T05:13:37;17.73;;;13.40;;
49123;SDS011;48506;48.202;16.274;2023-06-10T05:16:05;17.38;;;13.75;;
49123;SDS011;48506;48.202;16.274;2023-06-10T05:18:31;17.85;;;14.43;;
49123;SDS011;48506;48.202;16.274;2023-06-10T05:20:57;21.15;;;13.90;;
49123;SDS011;48506;48.202;16.274;2023-06-10T05:23:23;20.83;;;16.38;;
49123;SDS011;48506;48.202;16.274;2023-06-10T05:25:49;24.85;;;18.60;;
49123;SDS011;48506;48.202;16.274;2023-06-10T05:28:15;22.17;;;18.20;;
49123;SDS011;48506;48.202;16.274;2023-06-10T05:30:41;24.13;;;17.75;;
49123;SDS011;48506;48.202;16.274;2023-06-10T05:33:07;21.58;;;17.50;;
49123;SDS011;48506;48.202;16.274;2023-06-10T05:35:33;24.25;;;17.20;;
49123;SDS011;48506;48.202;16.274;2023-06-10T05:37:59;22.90;;;17.63;;
49123;SDS011;48506;48.202;16.274;2023-06-10T05:40:24;20.10;;;16.83;;
49123;SDS011;48506;48.202;16.274;2023-06-10T05:42:52;24.95;;;17.13;;
49123;SDS011;48506;48.202;16.274;2023-06-10T05:45:17;22.38;;;17.08;;
49123;SDS011;48506;48.202;16.274;2023-06-10T05:47:43;21.52;;;17.55;;
49123;SDS011;48506;48.202;16.274;2023-06-10T05:50:09;22.67;;;18.02;;
49123;SDS011;48506;48.202;16.274;2023-06-10T05:52:35;20.88;;;17.08;;
49123;SDS011;48506;48.202;16.274;2023-06-10T05:55:02;25.83;;;17.02;;
49123;SDS011;48506;48.202;16.274;2023-06-10T05:57:28;23.83;;;17.98;;
49123;SDS011;48506;48.202;16.274;2023-06-10T05:59:55;26.42;;;19.15;;
49123;SDS011;48506;48.202;16.274;2023-06-10T06:02:20;24.25;;;17.90;;
49123;SDS011;48506;48.202;16.274;2023-06-10T06:04:47;27.02;;;19.13;;
49123;SDS011;48506;48.202;16.274;2023-06-10T06:07:13;24.83;;;17.40;;
49123;SDS011;48506;48.202;16.274;2023-06-10T06:09:39;21.33;;;17.83;;
49123;SDS011;48506;48.202;16.274;2023-06-10T06:12:06;28.38;;;19.15;;
49123;SDS011;48506;48.202;16.274;2023-06-10T06:14:36;29.05;;;18.60;;
49123;SDS011;48506;48.202;16.274;2023-06-10T06:17:05;22.58;;;17.08;;
49123;SDS011;48506;48.202;16.274;2023-06-10T06:19:31;24.85;;;18.08;;
49123;SDS011;48506;48.202;16.274;2023-06-10T06:21:57;24.42;;;18.50;;
49123;SDS011;48506;48.202;16.274;2023-06-10T06:24:23;33.13;;;20.10;;
49123;SDS011;48506;48.202;16.274;2023-06-10T06:26:49;29.23;;;20.27;;
49123;SDS011;48506;48.202;16.274;2023-06-10T06:29:15;32.40;;;23.50;;
49123;SDS011;48506;48.202;16.274;2023-06-10T06:31:41;34.80;;;21.80;;
49123;SDS011;48506;48.202;16.274;2023-06-10T06:34:07;34.40;;;22.48;;
49123;SDS011;48506;48.202;16.274;2023-06-10T06:36:33;33.13;;;22.73;;
49123;SDS011;48506;48.202;16.274;2023-06-10T06:38:59;34.45;;;22.45;;
49123;SDS011;48506;48.202;16.274;2023-06-10T06:41:28;38.15;;;22.17;;
49123;SDS011;48506;48.202;16.274;2023-06-10T06:43:54;36.90;;;23.33;;
49123;SDS011;48506;48.202;16.274;2023-06-10T06:46:20;38.13;;;23.85;;
49123;SDS011;48506;48.202;16.274;2023-06-10T06:48:47;38.92;;;24.45;;
49123;SDS011;48506;48.202;16.274;2023-06-10T06:51:13;35.65;;;22.67;;
49123;SDS011;48506;48.202;16.274;2023-06-10T06:53:39;34.03;;;23.40;;
49123;SDS011;48506;48.202;16.274;2023-06-10T06:56:11;34.75;;;23.00;;
49123;SDS011;48506;48.202;16.274;2023-06-10T06:58:37;33.50;;;22.92;;
49123;SDS011;48506;48.202;16.274;2023-06-10T07:01:03;33.72;;;21.88;;
49123;SDS011;48506;48.202;16.274;2023-06-10T07:03:30;34.35;;;22.45;;
49123;SDS011;48506;48.202;16.274;2023-06-10T07:05:56;34.83;;;22.83;;
49123;SDS011;48506;48.202;16.274;2023-06-10T07:08:22;30.50;;;20.88;;
49123;SDS011;48506;48.202;16.274;2023-06-10T07:10:48;33.40;;;23.98;;
49123;SDS011;48506;48.202;16.274;2023-06-10T07:13:14;34.47;;;22.92;;
49123;SDS011;48506;48.202;16.274;2023-06-10T07:15:40;32.33;;;21.30;;
49123;SDS011;48506;48.202;16.274;2023-06-10T07:18:06;34.58;;;24.13;;
49123;SDS011;48506;48.202;16.274;2023-06-10T07:20:32;29.08;;;21.95;;
49123;SDS011;48506;48.202;16.274;2023-06-10T07:22:58;35.40;;;22.60;;
49123;SDS011;48506;48.202;16.274;2023-06-10T07:25:24;27.42;;;20.08;;
49123;SDS011;48506;48.202;16.274;2023-06-10T07:27:50;28.20;;;19.05;;
49123;SDS011;48506;48.202;16.274;2023-06-10T07:30:16;27.88;;;20.55;;
49123;SDS011;48506;48.202;16.274;2023-06-10T07:32:42;28.50;;;21.05;;
49123;SDS011;48506;48.202;16.274;2023-06-10T07:35:09;28.65;;;19.88;;
49123;SDS011;48506;48.202;16.274;2023-06-10T07:37:36;27.60;;;20.40;;
49123;SDS011;48506;48.202;16.274;2023-06-10T07:40:02;29.50;;;20.98;;
49123;SDS011;48506;48.202;16.274;2023-06-10T07:42:29;26.27;;;19.48;;
49123;SDS011;48506;48.202;16.274;2023-06-10T07:44:56;26.38;;;19.15;;
49123;SDS011;48506;48.202;16.274;2023-06-10T07:47:22;29.00;;;20.17;;
49123;SDS011;48506;48.202;16.274;2023-06-10T07:49:48;24.08;;;19.02;;
49123;SDS011;48506;48.202;16.274;2023-06-10T07:52:14;24.02;;;19.30;;
49123;SDS011;48506;48.202;16.274;2023-06-10T07:54:40;30.83;;;19.27;;
49123;SDS011;48506;48.202;16.274;2023-06-10T07:57:07;29.13;;;19.80;;
49123;SDS011;48506;48.202;16.274;2023-06-10T07:59:33;24.35;;;17.60;;
49123;SDS011;48506;48.202;16.274;2023-06-10T08:02:00;25.85;;;19.00;;
49123;SDS011;48506;48.202;16.274;2023-06-10T08:04:26;27.95;;;20.00;;
49123;SDS011;48506;48.202;16.274;2023-06-10T08:06:52;32.13;;;19.58;;
49123;SDS011;48506;48.202;16.274;2023-06-10T08:09:18;25.92;;;20.08;;
49123;SDS011;48506;48.202;16.274;2023-06-10T08:11:46;28.23;;;19.80;;
49123;SDS011;48506;48.202;16.274;2023-06-10T08:14:13;23.98;;;18.75;;
49123;SDS011;48506;48.202;16.274;2023-06-10T08:16:39;23.45;;;17.15;;
49123;SDS011;48506;48.202;16.274;2023-06-10T08:19:05;23.83;;;18.77;;
49123;SDS011;48506;48.202;16.274;2023-06-10T08:21:30;25.52;;;17.67;;
49123;SDS011;48506;48.202;16.274;2023-06-10T08:23:56;27.15;;;18.55;;
49123;SDS011;48506;48.202;16.274;2023-06-10T08:26:23;23.55;;;17.10;;
49123;SDS011;48506;48.202;16.274;2023-06-10T08:28:49;22.88;;;17.00;;
49123;SDS011;48506;48.202;16.274;2023-06-10T08:31:15;22.05;;;17.13;;
49123;SDS011;48506;48.202;16.274;2023-06-10T08:33:41;23.83;;;17.17;;
49123;SDS011;48506;48.202;16.274;2023-06-10T08:36:08;25.85;;;17.13;;
49123;SDS011;48506;48.202;16.274;2023-06-10T08:38:34;19.38;;;15.52;;
49123;SDS011;48506;48.202;16.274;2023-06-10T08:41:00;20.63;;;16.88;;
49123;SDS011;48506;48.202;16.274;2023-06-10T08:43:32;20.73;;;15.85;;
49123;SDS011;48506;48.202;16.274;2023-06-10T08:46:04;17.77;;;15.43;;
49123;SDS011;48506;48.202;16.274;2023-06-10T08:48:34;20.40;;;14.48;;
49123;SDS011;48506;48.202;16.274;2023-06-10T08:51:05;20.05;;;15.20;;
49123;SDS011;48506;48.202;16.274;2023-06-10T08:53:33;18.23;;;14.90;;
49123;SDS011;48506;48.202;16.274;2023-06-10T08:56:03;19.13;;;15.85;;
49123;SDS011;48506;48.202;16.274;2023-06-10T08:58:32;21.15;;;15.70;;
49123;SDS011;48506;48.202;16.274;2023-06-10T09:01:00;18.45;;;15.73;;
49123;SDS011;48506;48.202;16.274;2023-06-10T09:03:27;19.10;;;16.17;;
49123;SDS011;48506;48.202;16.274;2023-06-10T09:05:53;18.70;;;15.13;;
49123;SDS011;48506;48.202;16.274;2023-06-10T09:08:22;21.15;;;16.33;;
49123;SDS011;48506;48.202;16.274;2023-06-10T09:10:48;20.33;;;14.63;;
49123;SDS011;48506;48.202;16.274;2023-06-10T09:13:15;17.33;;;13.98;;
49123;SDS011;48506;48.202;16.274;2023-06-10T09:15:43;17.77;;;14.77;;
49123;SDS011;48506;48.202;16.274;2023-06-10T09:18:11;19.67;;;14.82;;
49123;SDS011;48506;48.202;16.274;2023-06-10T09:20:38;19.77;;;15.52;;
49123;SDS011;48506;48.202;16.274;2023-06-10T09:23:05;18.58;;;14.85;;
49123;SDS011;48506;48.202;16.274;2023-06-10T09:25:36;17.10;;;13.57;;
49123;SDS011;48506;48.202;16.274;2023-06-10T09:28:03;15.68;;;13.40;;
49123;SDS011;48506;48.202;16.274;2023-06-10T09:30:32;22.00;;;14.75;;
49123;SDS011;48506;48.202;16.274;2023-06-10T09:33:00;19.67;;;15.20;;
49123;SDS011;48506;48.202;16.274;2023-06-10T09:35:28;17.55;;;14.10;;
49123;SDS011;48506;48.202;16.274;2023-06-10T09:37:57;15.63;;;12.57;;
49123;SDS011;48506;48.202;16.274;2023-06-10T09:40:25;16.90;;;14.00;;
49123;SDS011;48506;48.202;16.274;2023-06-10T09:42:58;17.42;;;13.43;;
49123;SDS011;48506;48.202;16.274;2023-06-10T09:45:31;16.08;;;13.50;;
49123;SDS011;48506;48.202;16.274;2023-06-10T09:47:59;17.50;;;13.40;;
49123;SDS011;48506;48.202;16.274;2023-06-10T09:50:25;17.45;;;13.88;;
49123;SDS011;48506;48.202;16.274;2023-06-10T09:52:52;16.13;;;13.55;;
49123;SDS011;48506;48.202;16.274;2023-06-10T09:55:18;15.23;;;13.57;;
49123;SDS011;48506;48.202;16.274;2023-06-10T09:57:44;16.48;;;13.63;;
49123;SDS011;48506;48.202;16.274;2023-06-10T10:00:16;19.27;;;13.70;;
49123;SDS011;48506;48.202;16.274;2023-06-10T10:02:46;14.45;;;12.95;;
49123;SDS011;48506;48.202;16.274;2023-06-10T10:05:15;17.75;;;13.15;;
49123;SDS011;48506;48.202;16.274;2023-06-10T10:07:42;15.63;;;12.70;;
49123;SDS011;48506;48.202;16.274;2023-06-10T10:10:10;14.52;;;13.02;;
49123;SDS011;48506;48.202;16.274;2023-06-10T10:12:40;15.70;;;13.00;;
49123;SDS011;48506;48.202;16.274;2023-06-10T10:15:07;15.07;;;11.88;;
49123;SDS011;48506;48.202;16.274;2023-06-10T10:17:58;14.20;;;12.70;;
49123;SDS011;48506;48.202;16.274;2023-06-10T10:20:32;13.88;;;12.27;;
49123;SDS011;48506;48.202;16.274;2023-06-10T10:23:02;13.10;;;11.70;;
49123;SDS011;48506;48.202;16.274;2023-06-10T10:25:32;16.25;;;12.85;;
49123;SDS011;48506;48.202;16.274;2023-06-10T10:28:11;17.27;;;12.38;;
49123;SDS011;48506;48.202;16.274;2023-06-10T10:30:49;13.75;;;11.70;;
49123;SDS011;48506;48.202;16.274;2023-06-10T10:36:06;14.52;;;12.52;;
49123;SDS011;48506;48.202;16.274;2023-06-10T10:38:33;13.43;;;11.95;;
49123;SDS011;48506;48.202;16.274;2023-06-10T10:41:01;14.27;;;12.30;;
49123;SDS011;48506;48.202;16.274;2023-06-10T10:43:27;13.32;;;11.55;;
49123;SDS011;48506;48.202;16.274;2023-06-10T10:46:00;13.30;;;11.68;;
49123;SDS011;48506;48.202;16.274;2023-06-10T10:48:36;14.13;;;11.05;;
49123;SDS011;48506;48.202;16.274;2023-06-10T10:51:05;14.02;;;11.90;;
49123;SDS011;48506;48.202;16.274;2023-06-10T10:53:32;13.55;;;12.15;;
49123;SDS011;48506;48.202;16.274;2023-06-10T10:56:04;12.93;;;11.63;;
49123;SDS011;48506;48.202;16.274;2023-06-10T10:58:33;12.60;;;11.32;;
49123;SDS011;48506;48.202;16.274;2023-06-10T11:00:59;12.82;;;11.52;;
49123;SDS011;48506;48.202;16.274;2023-06-10T11:03:46;17.00;;;12.38;;
49123;SDS011;48506;48.202;16.274;2023-06-10T11:06:13;14.15;;;12.73;;
49123;SDS011;48506;48.202;16.274;2023-06-10T11:11:23;14.85;;;11.68;;
49123;SDS011;48506;48.202;16.274;2023-06-10T11:16:27;13.25;;;11.32;;
49123;SDS011;48506;48.202;16.274;2023-06-10T11:18:55;14.10;;;11.13;;
49123;SDS011;48506;48.202;16.274;2023-06-10T11:21:24;13.80;;;11.18;;
49123;SDS011;48506;48.202;16.274;2023-06-10T11:23:51;13.48;;;11.13;;
49123;SDS011;48506;48.202;16.274;2023-06-10T11:26:20;14.70;;;11.98;;
49123;SDS011;48506;48.202;16.274;2023-06-10T11:31:26;9.50;;;8.50;;
49123;SDS011;48506;48.202;16.274;2023-06-10T11:33:54;9.93;;;8.85;;
49123;SDS011;48506;48.202;16.274;2023-06-10T11:36:25;11.95;;;10.75;;
49123;SDS011;48506;48.202;16.274;2023-06-10T11:38:56;10.88;;;9.77;;
49123;SDS011;48506;48.202;16.274;2023-06-10T11:41:29;11.65;;;10.15;;
49123;SDS011;48506;48.202;16.274;2023-06-10T11:44:17;10.90;;;9.85;;
49123;SDS011;48506;48.202;16.274;2023-06-10T11:46:42;10.93;;;9.15;;
49123;SDS011;48506;48.202;16.274;2023-06-10T11:49:10;10.48;;;9.48;;
49123;SDS011;48506;48.202;16.274;2023-06-10T11:51:37;11.73;;;10.35;;
49123;SDS011;48506;48.202;16.274;2023-06-10T11:54:07;12.05;;;10.77;;
49123;SDS011;48506;48.202;16.274;2023-06-10T11:56:34;10.38;;;9.27;;
49123;SDS011;48506;48.202;16.274;2023-06-10T12:01:30;11.88;;;9.93;;
49123;SDS011;48506;48.202;16.274;2023-06-10T12:03:59;11.85;;;10.05;;
49123;SDS011;48506;48.202;16.274;2023-06-10T12:06:27;10.80;;;9.07;;
49123;SDS011;48506;48.202;16.274;2023-06-10T12:09:02;10.93;;;9.18;;
49123;SDS011;48506;48.202;16.274;2023-06-10T12:11:28;9.50;;;8.55;;
49123;SDS011;48506;48.202;16.274;2023-06-10T12:13:54;9.40;;;7.93;;
49123;SDS011;48506;48.202;16.274;2023-06-10T12:16:20;9.15;;;8.25;;
49123;SDS011;48506;48.202;16.274;2023-06-10T12:18:46;9.18;;;8.20;;
49123;SDS011;48506;48.202;16.274;2023-06-10T12:21:20;10.50;;;8.75;;
49123;SDS011;48506;48.202;16.274;2023-06-10T12:24:05;10.40;;;9.40;;
49123;SDS011;48506;48.202;16.274;2023-06-10T12:26:43;12.80;;;8.93;;
49123;SDS011;48506;48.202;16.274;2023-06-10T12:29:19;10.50;;;8.50;;
49123;SDS011;48506;48.202;16.274;2023-06-10T12:35:01;9.95;;;8.82;;
49123;SDS011;48506;48.202;16.274;2023-06-10T12:37:13;10.35;;;8.60;;
49123;SDS011;48506;48.202;16.274;2023-06-10T12:39:40;8.45;;;7.65;;
49123;SDS011;48506;48.202;16.274;2023-06-10T12:42:11;8.77;;;7.88;;
49123;SDS011;48506;48.202;16.274;2023-06-10T12:44:40;8.57;;;7.68;;
49123;SDS011;48506;48.202;16.274;2023-06-10T12:47:07;7.83;;;7.13;;
49123;SDS011;48506;48.202;16.274;2023-06-10T12:49:35;9.15;;;7.75;;
49123;SDS011;48506;48.202;16.274;2023-06-10T12:52:03;8.57;;;7.68;;
49123;SDS011;48506;48.202;16.274;2023-06-10T12:54:29;10.27;;;9.18;;
49123;SDS011;48506;48.202;16.274;2023-06-10T12:56:55;10.85;;;9.75;;
49123;SDS011;48506;48.202;16.274;2023-06-10T12:59:21;12.73;;;10.13;;
49123;SDS011;48506;48.202;16.274;2023-06-10T13:01:56;22.65;;;13.05;;
49123;SDS011;48506;48.202;16.274;2023-06-10T13:04:22;17.58;;;12.48;;
49123;SDS011;48506;48.202;16.274;2023-06-10T13:06:48;18.15;;;13.60;;
49123;SDS011;48506;48.202;16.274;2023-06-10T13:09:15;16.67;;;14.40;;
49123;SDS011;48506;48.202;16.274;2023-06-10T13:11:42;15.68;;;13.73;;
49123;SDS011;48506;48.202;16.274;2023-06-10T13:14:08;17.83;;;13.18;;
49123;SDS011;48506;48.202;16.274;2023-06-10T13:16:35;15.27;;;13.68;;
49123;SDS011;48506;48.202;16.274;2023-06-10T13:19:04;14.48;;;13.00;;
49123;SDS011;48506;48.202;16.274;2023-06-10T13:21:34;17.92;;;13.02;;
49123;SDS011;48506;48.202;16.274;2023-06-10T13:24:01;14.38;;;12.00;;
49123;SDS011;48506;48.202;16.274;2023-06-10T13:26:27;13.32;;;12.00;;
49123;SDS011;48506;48.202;16.274;2023-06-10T13:28:53;13.38;;;11.98;;
49123;SDS011;48506;48.202;16.274;2023-06-10T13:31:20;11.32;;;10.23;;
49123;SDS011;48506;48.202;16.274;2023-06-10T13:33:46;11.63;;;10.43;;
49123;SDS011;48506;48.202;16.274;2023-06-10T13:36:12;10.63;;;9.55;;
49123;SDS011;48506;48.202;16.274;2023-06-10T13:38:38;12.50;;;11.20;;
49123;SDS011;48506;48.202;16.274;2023-06-10T13:41:06;15.18;;;11.52;;
49123;SDS011;48506;48.202;16.274;2023-06-10T13:43:32;11.77;;;10.48;;
49123;SDS011;48506;48.202;16.274;2023-06-10T13:45:58;12.88;;;10.52;;
49123;SDS011;48506;48.202;16.274;2023-06-10T13:48:24;11.98;;;10.77;;
49123;SDS011;48506;48.202;16.274;2023-06-10T13:50:50;10.90;;;9.90;;
49123;SDS011;48506;48.202;16.274;2023-06-10T13:53:16;14.88;;;11.38;;
49123;SDS011;48506;48.202;16.274;2023-06-10T13:55:42;12.25;;;10.88;;
49123;SDS011;48506;48.202;16.274;2023-06-10T13:58:08;17.90;;;12.10;;
49123;SDS011;48506;48.202;16.274;2023-06-10T14:00:34;13.43;;;11.57;;
49123;SDS011;48506;48.202;16.274;2023-06-10T14:03:00;13.52;;;11.52;;
49123;SDS011;48506;48.202;16.274;2023-06-10T14:05:26;10.82;;;9.65;;
49123;SDS011;48506;48.202;16.274;2023-06-10T14:07:52;11.35;;;10.25;;
49123;SDS011;48506;48.202;16.274;2023-06-10T14:10:18;13.18;;;11.05;;
49123;SDS011;48506;48.202;16.274;2023-06-10T14:12:44;11.02;;;9.93;;
49123;SDS011;48506;48.202;16.274;2023-06-10T14:15:10;13.68;;;10.23;;
49123;SDS011;48506;48.202;16.274;2023-06-10T14:17:37;9.93;;;8.93;;
49123;SDS011;48506;48.202;16.274;2023-06-10T14:20:03;11.48;;;10.35;;
49123;SDS011;48506;48.202;16.274;2023-06-10T14:22:32;11.05;;;9.43;;
49123;SDS011;48506;48.202;16.274;2023-06-10T14:24:58;10.50;;;9.00;;
49123;SDS011;48506;48.202;16.274;2023-06-10T14:27:23;10.35;;;9.35;;
49123;SDS011;48506;48.202;16.274;2023-06-10T14:29:50;10.98;;;9.43;;
49123;SDS011;48506;48.202;16.274;2023-06-10T14:32:16;11.02;;;9.82;;
49123;SDS011;48506;48.202;16.274;2023-06-10T14:34:42;10.10;;;8.02;;
49123;SDS011;48506;48.202;16.274;2023-06-10T14:37:09;10.00;;;9.00;;
49123;SDS011;48506;48.202;16.274;2023-06-10T14:39:35;11.48;;;8.80;;